Time;durP1;ratioP1;P1;durP2;ratioP2;P2;SDS_P1;SDS_P2;PMS_P1;PMS_P2;Temp;Humidity;BMP_temperature;BMP_pressure;BME280_temperature;BME280_humidity;BME280_pressure;Samples;Min_cycle;Max_cycle;Signal;HPM_P1;HPM_P2
2022/08/08 00:01:46;;;;;;;9.95;6.95;;;;;;;14.01;77.39;102334.19;5091867;28;20046;-83
2022/08/08 00:04:21;;;;;;;22.30;8.50;;;;;;;13.94;76.93;102337.06;5092525;28;20069;-83
2022/08/08 00:07:17;;;;;;;10.60;6.65;;;;;;;13.88;76.82;102327.25;5092865;28;20020;-83
2022/08/08 00:09:53;;;;;;;11.60;6.70;;;;;;;13.91;78.28;102334.84;5092487;28;20039;-83
2022/08/08 00:12:26;;;;;;;13.65;7.70;;;;;;;13.88;79.55;102338.03;5092585;28;20020;-83
2022/08/08 00:15:19;;;;;;;12.87;7.13;;;;;;;13.85;78.55;102333.13;5092293;28;20129;-83
2022/08/08 00:17:52;;;;;;;12.90;7.53;;;;;;;13.83;79.80;102335.25;5092616;28;20262;-83
2022/08/08 00:20:28;;;;;;;10.40;7.30;;;;;;;13.73;80.04;102328.63;5091890;28;20028;-83
2022/08/08 00:22:58;;;;;;;9.23;7.15;;;;;;;13.65;80.21;102326.34;5092107;28;20048;-83
2022/08/08 00:25:41;;;;;;;9.73;7.45;;;;;;;13.68;80.61;102339.31;5091864;28;20530;-83
2022/08/08 00:28:11;;;;;;;12.88;7.63;;;;;;;13.61;81.00;102338.63;5092160;28;20059;-82
2022/08/08 00:30:43;;;;;;;13.35;7.97;;;;;;;13.48;80.58;102340.56;5092187;28;20160;-82
2022/08/08 00:33:17;;;;;;;13.50;7.90;;;;;;;13.49;80.67;102338.69;5091879;28;20020;-82
2022/08/08 00:35:53;;;;;;;10.85;7.75;;;;;;;13.49;80.02;102344.06;5091929;28;20535;-82
2022/08/08 00:38:39;;;;;;;10.15;7.55;;;;;;;13.54;80.59;102349.56;5092177;28;20383;-83
2022/08/08 00:41:22;;;;;;;16.33;7.87;;;;;;;13.50;81.00;102347.59;5091534;28;20024;-82
2022/08/08 00:44:21;;;;;;;11.33;8.13;;;;;;;13.43;81.21;102347.72;5091893;28;20772;-83
2022/08/08 00:47:12;;;;;;;11.88;8.10;;;;;;;13.37;81.90;102338.69;5091867;28;20511;-83
2022/08/08 00:50:08;;;;;;;13.73;8.90;;;;;;;13.32;81.78;102346.69;5090363;28;20073;-83
2022/08/08 00:52:47;;;;;;;11.85;8.32;;;;;;;13.28;82.26;102340.94;5091643;28;20052;-82
2022/08/08 00:55:41;;;;;;;14.27;8.38;;;;;;;13.23;82.21;102331.97;5091882;28;20115;-81
2022/08/08 00:58:31;;;;;;;11.57;8.20;;;;;;;13.24;82.41;102334.41;5091790;28;20028;-81
2022/08/08 01:01:11;;;;;;;15.13;8.70;;;;;;;13.21;83.56;102332.22;5091352;28;20028;-81
2022/08/08 01:03:57;;;;;;;13.25;8.80;;;;;;;13.18;83.13;102325.41;5091739;28;20020;-82
2022/08/08 01:06:46;;;;;;;11.82;7.97;;;;;;;13.14;82.38;102329.66;5091275;28;20445;-82
2022/08/08 01:09:25;;;;;;;13.57;8.53;;;;;;;13.13;84.17;102332.56;5090566;28;20027;-82
2022/08/08 01:12:05;;;;;;;13.60;8.53;;;;;;;13.06;84.19;102332.72;5091190;28;20270;-82
2022/08/08 01:14:55;;;;;;;12.93;8.80;;;;;;;13.02;84.22;102329.69;5091330;28;20044;-82
2022/08/08 01:17:39;;;;;;;11.43;9.05;;;;;;;13.01;83.72;102321.84;5091152;28;20024;-82
2022/08/08 01:20:19;;;;;;;16.55;8.70;;;;;;;12.99;84.84;102332.00;5090972;28;20031;-82
2022/08/08 01:23:16;;;;;;;12.65;8.55;;;;;;;12.92;83.85;102324.06;5091416;28;20055;-82
2022/08/08 01:26:04;;;;;;;13.07;8.45;;;;;;;12.84;83.43;102327.94;5091086;28;20075;-82
2022/08/08 01:28:44;;;;;;;11.32;8.60;;;;;;;12.80;84.69;102323.28;5091259;28;20035;-82
2022/08/08 01:31:54;;;;;;;13.65;8.73;;;;;;;12.70;84.61;102323.88;5090715;28;20063;-83
2022/08/08 01:34:45;;;;;;;13.48;9.02;;;;;;;12.71;85.36;102317.44;5088244;28;20016;-83
2022/08/08 01:37:29;;;;;;;16.30;9.30;;;;;;;12.67;85.92;102327.88;5071055;28;20044;-83
2022/08/08 01:40:07;;;;;;;13.03;9.10;;;;;;;12.66;86.18;102328.09;5070480;28;20275;-83
2022/08/08 01:42:49;;;;;;;12.18;8.70;;;;;;;12.59;86.33;102317.47;5070800;28;20028;-83
2022/08/08 01:45:33;;;;;;;15.60;8.60;;;;;;;12.62;86.52;102324.22;5070528;28;20027;-83
2022/08/08 01:48:28;;;;;;;16.13;9.73;;;;;;;12.58;86.92;102323.88;5070757;28;20520;-83
2022/08/08 01:51:34;;;;;;;14.90;9.20;;;;;;;12.57;86.86;102320.38;5070524;28;20025;-82
2022/08/08 01:54:20;;;;;;;14.05;9.07;;;;;;;12.49;86.73;102309.97;5070440;28;20086;-83
2022/08/08 01:56:57;;;;;;;14.82;9.10;;;;;;;12.50;87.46;102325.06;5070670;28;20032;-82
2022/08/08 01:59:22;;;;;;;12.63;8.90;;;;;;;12.44;87.48;102323.28;5069176;28;20028;-82
2022/08/08 02:02:13;;;;;;;19.57;10.27;;;;;;;12.43;87.86;102332.41;5070463;28;20032;-83
2022/08/08 02:05:08;;;;;;;17.08;9.07;;;;;;;12.41;88.14;102329.97;5070345;28;20437;-82
2022/08/08 02:07:58;;;;;;;17.85;10.25;;;;;;;12.33;87.74;102321.44;5070763;28;20033;-82
2022/08/08 02:10:27;;;;;;;18.87;9.50;;;;;;;12.35;88.57;102338.94;5070206;28;20119;-83
2022/08/08 02:12:58;;;;;;;15.60;10.10;;;;;;;12.26;88.69;102329.59;5070322;28;20278;-83
2022/08/08 02:15:51;;;;;;;16.63;9.25;;;;;;;12.23;88.93;102322.81;5070422;28;20372;-83
2022/08/08 02:18:32;;;;;;;14.10;10.40;;;;;;;12.18;89.08;102321.88;5070360;28;20476;-83
2022/08/08 02:24:19;;;;;;;17.15;11.00;;;;;;;12.07;89.78;102321.63;5074696;28;20506;-83
2022/08/08 02:27:06;;;;;;;16.90;10.43;;;;;;;12.14;89.36;102329.59;5074621;28;20040;-83
2022/08/08 02:29:54;;;;;;;16.95;10.70;;;;;;;12.08;89.73;102327.81;5074079;28;20484;-83
2022/08/08 02:32:58;;;;;;;22.10;10.48;;;;;;;12.04;89.08;102323.97;5073930;28;20035;-83
2022/08/08 02:35:53;;;;;;;16.83;9.70;;;;;;;12.05;89.43;102341.75;5041706;28;20161;-83
2022/08/08 02:38:24;;;;;;;15.37;10.40;;;;;;;12.05;91.13;102326.41;5074000;28;20023;-82
2022/08/08 02:41:01;;;;;;;17.23;10.77;;;;;;;12.04;91.41;102332.03;5073580;28;20362;-83
2022/08/08 02:43:41;;;;;;;16.25;10.27;;;;;;;12.05;90.92;102336.38;5073748;28;20032;-83
2022/08/08 02:46:25;;;;;;;16.55;10.73;;;;;;;12.01;90.95;102332.50;5074162;28;20060;-83
2022/08/08 02:49:24;;;;;;;20.25;10.68;;;;;;;12.01;90.28;102327.13;5074402;28;20036;-83
2022/08/08 02:52:07;;;;;;;15.45;10.75;;;;;;;11.94;91.28;102328.00;5073649;28;20039;-83
2022/08/08 02:54:54;;;;;;;20.33;10.68;;;;;;;11.92;92.35;102330.09;5073467;28;20032;-83
2022/08/08 02:57:37;;;;;;;16.50;11.00;;;;;;;11.84;92.06;102322.38;5072835;28;20032;-83
2022/08/08 03:00:22;;;;;;;17.23;10.35;;;;;;;11.69;91.67;102304.00;5072630;28;20055;-83
2022/08/08 03:03:15;;;;;;;17.02;9.88;;;;;;;11.75;90.97;102329.94;5073678;28;20032;-83
2022/08/08 03:06:17;;;;;;;16.93;10.43;;;;;;;11.75;92.76;102329.13;5073600;28;20383;-83
2022/08/08 03:09:12;;;;;;;19.63;11.07;;;;;;;11.69;92.15;102330.03;5073691;28;20365;-83
2022/08/08 03:12:07;;;;;;;15.15;11.07;;;;;;;11.68;91.87;102329.22;5073419;28;20112;-83
2022/08/08 03:14:55;;;;;;;16.40;10.85;;;;;;;11.71;93.98;102333.28;5071909;28;20032;-83
2022/08/08 03:17:38;;;;;;;18.98;10.75;;;;;;;11.70;93.18;102320.91;5072335;28;20050;-83
2022/08/08 03:22:29;;;;;;;15.93;10.60;;;;;;;11.68;93.80;102333.78;5073100;28;20033;-83
2022/08/08 03:24:54;;;;;;;19.33;10.77;;;;;;;11.56;94.56;102325.69;5074058;28;20035;-83
2022/08/08 03:27:36;;;;;;;15.30;10.90;;;;;;;11.58;95.00;102335.13;5073396;28;20059;-83
2022/08/08 03:30:09;;;;;;;27.23;11.05;;;;;;;11.50;94.22;102317.47;5072392;28;20031;-82
2022/08/08 03:35:24;;;;;;;20.35;10.82;;;;;;;11.54;95.43;102333.94;5076893;28;20078;-82
2022/08/08 03:37:51;;;;;;;17.95;10.85;;;;;;;11.49;95.85;102337.31;5071751;28;20547;-82
2022/08/08 03:40:19;;;;;;;19.83;11.27;;;;;;;11.48;95.98;102334.88;5071018;28;20028;-83
2022/08/08 03:42:45;;;;;;;16.47;10.83;;;;;;;11.54;96.20;102338.50;5072864;28;20081;-82
2022/08/08 03:45:12;;;;;;;25.00;11.20;;;;;;;11.54;96.09;102342.00;5072604;28;20274;-82
2022/08/08 03:47:38;;;;;;;16.35;10.68;;;;;;;11.47;96.18;102336.72;5071782;28;20025;-82
2022/08/08 03:50:03;;;;;;;21.03;11.03;;;;;;;11.48;95.23;102348.28;5072301;28;20470;-82
2022/08/08 03:52:30;;;;;;;17.08;11.27;;;;;;;11.45;95.77;102351.41;5072784;28;20052;-82
2022/08/08 03:54:57;;;;;;;19.05;10.63;;;;;;;11.39;95.86;102349.63;5072943;28;20415;-82
2022/08/08 03:57:22;;;;;;;18.30;11.07;;;;;;;11.40;96.41;102348.59;5072547;28;20024;-82
2022/08/08 03:59:49;;;;;;;16.10;10.73;;;;;;;11.29;95.86;102337.59;5071955;28;20089;-82
2022/08/08 04:02:18;;;;;;;17.20;11.13;;;;;;;11.38;96.75;102358.72;5072342;28;20017;-82
2022/08/08 04:04:44;;;;;;;21.20;11.25;;;;;;;11.36;96.15;102358.97;5072432;28;20426;-82
2022/08/08 04:07:09;;;;;;;18.93;10.97;;;;;;;11.31;95.97;102356.97;5072444;28;20039;-82
2022/08/08 04:09:35;;;;;;;17.80;10.55;;;;;;;11.38;96.09;102361.41;5072500;28;20380;-83
2022/08/08 04:12:01;;;;;;;15.85;10.27;;;;;;;11.36;95.62;102354.41;5071935;28;20020;-83
2022/08/08 04:14:27;;;;;;;16.77;10.50;;;;;;;11.41;95.66;102360.97;5072009;28;20027;-83
2022/08/08 04:16:52;;;;;;;15.45;11.02;;;;;;;11.42;96.16;102362.59;5072281;28;20037;-83
2022/08/08 04:19:17;;;;;;;16.00;10.13;;;;;;;11.42;96.13;102360.72;5072272;28;20032;-82
2022/08/08 04:21:43;;;;;;;17.13;11.10;;;;;;;11.36;96.52;102354.41;5071451;28;20035;-82
2022/08/08 04:24:08;;;;;;;13.80;10.10;;;;;;;11.44;96.34;102361.31;5071550;28;20375;-82
2022/08/08 04:26:33;;;;;;;16.30;10.50;;;;;;;11.44;97.03;102363.19;5071913;28;20086;-82
2022/08/08 04:28:59;;;;;;;14.60;9.90;;;;;;;11.47;95.86;102368.13;5071998;28;20028;-83
2022/08/08 04:31:24;;;;;;;18.83;9.93;;;;;;;11.46;95.39;102366.47;5071098;28;20077;-84
2022/08/08 04:33:49;;;;;;;15.90;9.40;;;;;;;11.52;96.50;102363.72;5071914;28;20024;-83
2022/08/08 04:36:15;;;;;;;16.17;10.33;;;;;;;11.57;95.93;102371.06;5071830;28;20028;-83
2022/08/08 04:38:40;;;;;;;13.93;10.00;;;;;;;11.61;95.89;102366.91;5071960;28;20555;-82
2022/08/08 04:41:06;;;;;;;13.73;10.03;;;;;;;11.63;96.13;102372.88;5071469;28;20024;-83
2022/08/08 04:43:31;;;;;;;16.33;11.17;;;;;;;11.69;96.15;102378.34;5071084;28;20429;-83
2022/08/08 04:45:57;;;;;;;17.25;10.35;;;;;;;11.70;96.04;102385.38;5071421;28;20493;-82
2022/08/08 04:48:22;;;;;;;16.70;10.53;;;;;;;11.65;95.42;102373.47;5071733;28;20024;-82
2022/08/08 04:50:47;;;;;;;18.43;11.57;;;;;;;11.76;96.34;102390.66;5071085;28;20020;-82
2022/08/08 04:53:13;;;;;;;17.10;10.53;;;;;;;11.78;94.99;102385.88;5071546;28;20475;-82
2022/08/08 04:55:39;;;;;;;14.55;10.30;;;;;;;11.86;94.73;102397.34;5069852;28;20494;-82
2022/08/08 04:58:04;;;;;;;17.63;11.20;;;;;;;11.88;96.15;102397.94;5071570;28;20021;-82
2022/08/08 05:00:29;;;;;;;18.07;11.87;;;;;;;11.83;95.63;102390.56;5070876;28;20025;-83
2022/08/08 05:02:55;;;;;;;15.07;11.05;;;;;;;11.93;95.96;102406.94;5071388;28;20031;-83
2022/08/08 05:05:20;;;;;;;22.80;12.73;;;;;;;11.96;96.88;102401.13;5069709;28;20028;-82
2022/08/08 05:07:46;;;;;;;21.95;13.40;;;;;;;11.97;97.66;102401.94;5071600;28;20027;-83
2022/08/08 05:10:11;;;;;;;19.57;13.10;;;;;;;12.06;97.34;102405.97;5070659;28;20054;-83
2022/08/08 05:12:36;;;;;;;18.93;13.53;;;;;;;12.13;97.79;102403.19;5070784;28;20488;-84
2022/08/08 05:15:02;;;;;;;26.07;16.03;;;;;;;12.23;99.02;102403.44;5071351;28;20032;-83
2022/08/08 05:17:27;;;;;;;22.77;14.13;;;;;;;12.36;97.08;102410.47;5071177;28;20032;-83
2022/08/08 05:19:53;;;;;;;29.80;15.83;;;;;;;12.63;97.64;102414.59;5070708;28;20085;-83
2022/08/08 05:22:21;;;;;;;26.60;17.43;;;;;;;13.07;97.28;102417.78;5071183;28;20452;-83
2022/08/08 05:24:46;;;;;;;25.55;16.80;;;;;;;13.82;94.49;102417.13;5070705;28;20028;-82
2022/08/08 05:27:11;;;;;;;22.93;14.93;;;;;;;14.57;90.16;102415.19;5070886;28;20021;-83
2022/08/08 05:29:37;;;;;;;17.43;13.63;;;;;;;15.39;87.30;102425.50;5071079;28;20031;-82
2022/08/08 05:32:04;;;;;;;21.13;13.90;;;;;;;15.94;83.37;102422.91;5070285;28;20035;-82
2022/08/08 05:34:33;;;;;;;18.50;13.27;;;;;;;16.23;81.63;102420.75;5070614;28;20021;-82
2022/08/08 05:37:02;;;;;;;19.65;12.60;;;;;;;16.45;80.59;102420.63;5077624;28;20506;-82
2022/08/08 05:39:27;;;;;;;18.48;11.85;;;;;;;16.53;80.01;102422.03;5091043;28;20467;-82
2022/08/08 05:41:53;;;;;;;19.27;11.93;;;;;;;16.32;80.12;102408.38;5090349;28;20035;-83
2022/08/08 05:44:24;;;;;;;19.93;12.47;;;;;;;16.09;81.39;102423.03;5090712;28;20500;-83
2022/08/08 05:46:52;;;;;;;19.08;12.30;;;;;;;15.88;82.84;102430.97;5091081;28;20027;-82
2022/08/08 05:49:18;;;;;;;19.55;12.18;;;;;;;15.67;84.25;102426.38;5090899;28;20788;-83
2022/08/08 05:51:45;;;;;;;18.40;11.55;;;;;;;15.51;84.03;102417.28;5090248;28;20123;-82
2022/08/08 05:54:10;;;;;;;18.67;11.10;;;;;;;15.36;84.55;102417.91;5090583;28;20171;-82
2022/08/08 05:56:39;;;;;;;20.67;11.27;;;;;;;15.29;86.48;102429.72;5090112;28;20650;-83
2022/08/08 05:59:09;;;;;;;20.48;10.50;;;;;;;15.19;88.30;102431.47;5091143;28;20064;-83
2022/08/08 06:01:40;;;;;;;19.00;10.63;;;;;;;15.11;89.02;102430.81;5090492;28;20012;-82
2022/08/08 06:04:09;;;;;;;17.13;11.17;;;;;;;14.99;89.12;102428.22;5090751;28;20285;-83
2022/08/08 06:06:38;;;;;;;22.58;11.23;;;;;;;15.03;89.55;102438.53;5090667;28;20020;-83
2022/08/08 06:09:04;;;;;;;22.65;9.82;;;;;;;15.09;88.99;102434.84;5091149;28;20055;-83
2022/08/08 06:11:31;;;;;;;18.93;10.40;;;;;;;15.08;90.23;102441.31;5090132;28;20523;-83
2022/08/08 06:13:56;;;;;;;17.73;10.27;;;;;;;15.11;89.06;102433.53;5090419;28;20475;-82
2022/08/08 06:16:22;;;;;;;18.42;10.93;;;;;;;15.13;89.84;102438.69;5090567;28;20032;-82
2022/08/08 06:18:49;;;;;;;16.57;10.57;;;;;;;15.22;89.57;102447.19;5090759;28;20476;-82
2022/08/08 06:21:16;;;;;;;15.43;11.05;;;;;;;15.26;88.36;102445.59;5089927;28;20069;-83
2022/08/08 06:23:41;;;;;;;15.23;10.67;;;;;;;15.27;89.71;102444.53;5090247;28;20021;-83
2022/08/08 06:26:11;;;;;;;16.93;11.13;;;;;;;15.29;90.24;102451.34;5090636;28;20274;-83
2022/08/08 06:28:47;;;;;;;18.77;10.67;;;;;;;15.49;89.67;102451.81;5090770;28;20025;-83
2022/08/08 06:31:18;;;;;;;14.07;9.83;;;;;;;15.57;89.17;102454.91;5089709;28;20277;-83
2022/08/08 06:34:13;;;;;;;17.80;9.70;;;;;;;15.74;88.42;102456.72;5089966;28;20103;-83
2022/08/08 06:36:41;;;;;;;16.95;9.80;;;;;;;15.74;87.64;102445.91;5090421;28;20020;-83
2022/08/08 06:39:09;;;;;;;19.10;9.25;;;;;;;16.03;86.84;102464.63;5090604;28;20055;-83
2022/08/08 06:41:45;;;;;;;16.73;10.27;;;;;;;16.11;86.45;102463.34;5089691;28;20521;-83
2022/08/08 06:44:13;;;;;;;14.18;9.02;;;;;;;16.18;86.58;102456.66;5090553;28;20107;-83
2022/08/08 06:46:39;;;;;;;12.70;8.13;;;;;;;16.35;85.38;102456.53;5090268;28;20028;-83
2022/08/08 06:49:04;;;;;;;13.07;8.03;;;;;;;16.44;83.91;102465.00;5091580;28;20026;-83
2022/08/08 06:51:30;;;;;;;13.80;8.47;;;;;;;16.55;83.81;102456.97;5089810;28;20544;-83
2022/08/08 06:53:55;;;;;;;12.03;9.43;;;;;;;16.62;81.80;102457.56;5090259;28;20633;-83
2022/08/08 06:56:22;;;;;;;10.43;8.47;;;;;;;16.79;81.87;102466.38;5090436;28;20483;-82
2022/08/08 06:58:48;;;;;;;12.07;8.85;;;;;;;17.00;81.35;102473.84;5090768;28;20028;-83
2022/08/08 07:01:16;;;;;;;19.47;9.00;;;;;;;17.18;80.18;102472.56;5089931;28;20115;-83
2022/08/08 07:03:51;;;;;;;16.02;9.40;;;;;;;17.27;80.70;102468.31;5090475;28;20028;-83
2022/08/08 07:06:22;;;;;;;11.15;8.88;;;;;;;17.35;77.85;102473.19;5090334;28;20054;-83
2022/08/08 07:08:51;;;;;;;12.95;7.97;;;;;;;17.39;77.90;102476.22;5093612;28;20074;-83
2022/08/08 07:11:22;;;;;;;12.85;8.07;;;;;;;17.43;77.70;102466.50;5093428;28;20021;-82
2022/08/08 07:13:52;;;;;;;19.05;7.78;;;;;;;17.65;77.09;102477.13;5093902;28;20030;-82
2022/08/08 07:16:30;;;;;;;26.00;7.78;;;;;;;17.79;76.98;102482.06;5094067;28;20024;-82
2022/08/08 07:21:55;;;;;;;13.23;6.00;;;;;;;17.91;75.10;102498.09;6007387;22;20279;-82
2022/08/08 07:24:45;;;;;;;14.13;5.80;;;;;;;18.10;74.64;102498.41;5089648;28;20067;-81
2022/08/08 07:27:13;;;;;;;7.70;5.13;;;;;;;18.33;73.03;102490.88;5084482;28;20047;-81
2022/08/08 07:29:39;;;;;;;10.80;5.10;;;;;;;18.38;70.93;102493.59;5093210;28;20107;-82
2022/08/08 07:32:06;;;;;;;9.27;4.80;;;;;;;18.36;70.98;102488.41;5093297;28;20024;-82
2022/08/08 07:34:34;;;;;;;10.93;4.75;;;;;;;18.49;71.44;102491.69;5093237;28;20039;-82
2022/08/08 07:37:04;;;;;;;9.55;4.90;;;;;;;18.52;70.75;102488.44;5092139;28;20441;-82
2022/08/08 07:39:30;;;;;;;9.95;4.50;;;;;;;18.64;71.15;102499.00;5088376;28;20071;-83
2022/08/08 07:41:59;;;;;;;8.48;3.70;;;;;;;18.81;69.92;102496.81;5093429;28;20028;-83
2022/08/08 07:44:25;;;;;;;10.10;3.60;;;;;;;18.83;69.12;102489.22;5093873;28;20032;-83
2022/08/08 07:46:51;;;;;;;9.10;3.90;;;;;;;19.04;68.78;102503.63;5093340;28;20286;-83
2022/08/08 07:49:16;;;;;;;7.53;3.70;;;;;;;19.10;68.59;102482.69;5093727;28;20031;-83
2022/08/08 07:51:44;;;;;;;8.70;3.23;;;;;;;19.21;67.07;102497.06;5105539;28;20035;-82
2022/08/08 07:54:33;;;;;;;8.70;3.75;;;;;;;19.26;67.98;102493.50;5108967;28;20053;-83
2022/08/08 07:57:06;;;;;;;5.78;3.60;;;;;;;19.37;68.24;102498.66;5108240;28;20028;-84
2022/08/08 07:59:49;;;;;;;6.80;3.33;;;;;;;19.41;67.49;102495.38;5102821;28;20395;-83
2022/08/08 08:02:22;;;;;;;6.32;3.15;;;;;;;19.54;66.94;102499.41;5094440;28;20024;-83
2022/08/08 08:04:47;;;;;;;6.63;3.03;;;;;;;19.65;65.83;102500.97;5093769;28;20020;-81
2022/08/08 08:07:15;;;;;;;6.47;3.07;;;;;;;19.77;65.15;102509.63;5093330;28;20027;-81
2022/08/08 08:09:41;;;;;;;10.40;2.95;;;;;;;19.94;63.27;102516.63;5093536;28;20024;-82
2022/08/08 08:12:10;;;;;;;5.78;2.70;;;;;;;20.00;62.74;102511.97;5093188;28;20024;-82
2022/08/08 08:14:49;;;;;;;6.68;2.63;;;;;;;20.02;63.10;102510.59;5092964;28;20031;-83
2022/08/08 08:17:18;;;;;;;8.10;2.75;;;;;;;20.10;62.79;102514.63;5093357;28;20026;-82
2022/08/08 08:19:48;;;;;;;5.40;2.72;;;;;;;20.09;61.97;102521.19;5091191;28;20055;-82
2022/08/08 08:22:16;;;;;;;4.85;2.40;;;;;;;20.16;62.02;102509.97;5092888;28;20035;-82
2022/08/08 08:24:42;;;;;;;8.80;2.47;;;;;;;20.41;62.90;102514.41;5092689;28;20028;-82
2022/08/08 08:27:07;;;;;;;6.27;2.10;;;;;;;20.56;59.73;102519.72;5093157;28;20095;-82
2022/08/08 08:29:34;;;;;;;4.77;2.00;;;;;;;20.52;60.18;102517.88;5072492;28;20271;-84
2022/08/08 08:32:00;;;;;;;4.65;2.30;;;;;;;20.55;61.09;102530.94;5069931;28;20114;-84
2022/08/08 08:34:26;;;;;;;6.87;2.03;;;;;;;20.60;59.99;102525.44;5072237;28;20119;-83
2022/08/08 08:36:51;;;;;;;6.40;2.15;;;;;;;20.78;59.83;102523.16;5071611;28;20097;-83
2022/08/08 08:39:16;;;;;;;6.40;2.40;;;;;;;20.74;58.86;102514.69;5072404;28;20194;-83
2022/08/08 08:41:42;;;;;;;5.00;2.23;;;;;;;20.94;59.39;102526.53;5071444;28;20017;-83
2022/08/08 08:44:09;;;;;;;3.63;1.80;;;;;;;21.10;58.00;102522.53;5071713;28;20107;-83
2022/08/08 08:46:36;;;;;;;5.03;2.33;;;;;;;21.22;57.33;102524.88;5071936;28;20021;-83
2022/08/08 08:49:02;;;;;;;7.33;2.70;;;;;;;21.17;57.28;102516.78;5071848;28;20283;-83
2022/08/08 08:51:29;;;;;;;5.28;2.50;;;;;;;21.14;57.76;102522.78;5071513;28;20016;-83
2022/08/08 08:53:55;;;;;;;4.97;2.33;;;;;;;21.19;56.90;102517.25;5071616;28;20020;-82
2022/08/08 08:56:25;;;;;;;4.65;1.95;;;;;;;21.32;56.14;102524.78;5071515;28;20032;-83
2022/08/08 08:58:52;;;;;;;3.88;2.05;;;;;;;21.47;55.10;102514.78;5071463;28;20112;-83
2022/08/08 09:01:22;;;;;;;8.55;2.00;;;;;;;21.56;55.09;102518.47;5070876;28;20021;-83
2022/08/08 09:03:49;;;;;;;3.65;1.70;;;;;;;21.54;53.38;102526.16;5070946;28;20032;-84
2022/08/08 09:06:20;;;;;;;3.25;1.60;;;;;;;21.63;55.17;102513.50;5071022;28;20016;-84
2022/08/08 09:08:52;;;;;;;3.63;1.90;;;;;;;21.73;53.99;102525.38;5069810;28;20021;-83
2022/08/08 09:11:18;;;;;;;3.03;1.47;;;;;;;21.75;53.67;102520.44;5070848;28;20021;-84
2022/08/08 09:13:44;;;;;;;3.50;1.80;;;;;;;22.01;54.63;102520.09;5071058;28;20754;-83
2022/08/08 09:16:09;;;;;;;5.00;1.90;;;;;;;22.15;53.21;102526.44;5071164;28;20509;-84
2022/08/08 09:18:35;;;;;;;4.53;2.00;;;;;;;22.22;53.76;102532.34;5070854;28;20016;-84
2022/08/08 09:21:01;;;;;;;4.70;2.00;;;;;;;22.39;52.72;102531.81;5070605;28;20031;-83
2022/08/08 09:23:31;;;;;;;2.80;1.50;;;;;;;22.46;52.23;102525.97;5069566;28;20123;-84
2022/08/08 09:26:04;;;;;;;4.27;1.60;;;;;;;22.53;51.74;102525.63;5071079;28;20349;-83
2022/08/08 09:28:36;;;;;;;3.58;1.80;;;;;;;22.62;52.16;102517.56;5071306;28;20413;-83
2022/08/08 09:31:06;;;;;;;4.28;1.92;;;;;;;22.73;51.66;102529.13;5069336;28;20028;-83
2022/08/08 09:33:33;;;;;;;8.02;2.00;;;;;;;22.82;50.93;102532.78;5070892;28;20029;-83
2022/08/08 09:36:00;;;;;;;6.43;2.00;;;;;;;22.66;50.52;102521.28;5070846;28;20020;-83
2022/08/08 09:38:43;;;;;;;3.90;1.58;;;;;;;22.69;52.25;102535.19;5069188;28;20396;-83
2022/08/08 09:41:12;;;;;;;3.90;1.80;;;;;;;22.87;50.51;102529.13;5070280;28;20029;-83
2022/08/08 09:43:48;;;;;;;2.95;1.90;;;;;;;23.09;50.16;102526.53;5070586;28;20028;-84
2022/08/08 09:46:15;;;;;;;6.45;1.92;;;;;;;23.49;49.25;102519.78;5070974;28;20021;-84
2022/08/08 09:48:44;;;;;;;3.10;1.50;;;;;;;24.07;49.48;102512.78;5069391;28;20121;-82
2022/08/08 09:51:13;;;;;;;5.63;2.00;;;;;;;24.60;48.31;102524.09;5069958;28;20372;-83
2022/08/08 09:53:48;;;;;;;8.57;1.60;;;;;;;24.37;46.62;102526.06;5070362;28;20032;-83
2022/08/08 09:56:14;;;;;;;3.47;1.90;;;;;;;23.89;47.06;102522.75;5070710;28;20031;-83
2022/08/08 09:58:46;;;;;;;5.75;1.55;;;;;;;23.71;47.80;102517.13;5070574;28;20028;-83
2022/08/08 10:01:11;;;;;;;2.85;1.60;;;;;;;23.50;47.92;102521.41;5070065;28;20032;-82
2022/08/08 10:03:39;;;;;;;3.33;1.50;;;;;;;23.01;49.02;102520.97;5069553;28;20028;-82
2022/08/08 10:06:15;;;;;;;6.65;2.13;;;;;;;22.55;49.48;102520.66;5070490;28;20029;-83
2022/08/08 10:08:49;;;;;;;6.22;1.92;;;;;;;22.65;50.59;102515.03;5070451;28;20013;-83
2022/08/08 10:11:19;;;;;;;6.70;1.75;;;;;;;23.26;49.98;102522.44;5069781;28;20035;-82
2022/08/08 10:13:58;;;;;;;5.28;2.00;;;;;;;23.46;48.81;102531.34;5070386;28;20116;-83
2022/08/08 10:16:23;;;;;;;2.67;2.05;;;;;;;23.29;49.13;102521.81;5070225;28;20032;-82
2022/08/08 10:18:49;;;;;;;4.50;1.87;;;;;;;23.27;49.46;102524.03;5070312;28;20395;-82
2022/08/08 10:21:18;;;;;;;4.50;2.10;;;;;;;23.13;49.26;102524.81;5069308;28;20270;-83
2022/08/08 10:23:49;;;;;;;4.85;1.80;;;;;;;23.37;49.70;102514.81;5069044;28;20024;-83
2022/08/08 10:26:35;;;;;;;3.25;1.52;;;;;;;23.95;48.98;102521.50;5070600;28;20029;-83
2022/08/08 10:29:06;;;;;;;3.55;1.60;;;;;;;24.25;45.50;102526.63;5070600;28;20021;-83
2022/08/08 10:34:04;;;;;;;3.67;1.80;;;;;;;23.75;47.23;102518.09;5241184;22;20313;-83
2022/08/08 10:36:30;;;;;;;4.25;1.75;;;;;;;24.08;47.29;102524.56;5070222;28;20029;-82
2022/08/08 10:38:57;;;;;;;5.28;1.80;;;;;;;24.29;46.17;102524.88;5070321;28;20021;-83
2022/08/08 10:41:26;;;;;;;5.80;1.70;;;;;;;24.49;45.35;102523.56;5070838;28;20035;-83
2022/08/08 10:43:52;;;;;;;2.97;1.25;;;;;;;24.80;44.81;102515.38;5074245;28;20051;-83
2022/08/08 10:46:27;;;;;;;3.15;1.30;;;;;;;24.97;44.04;102521.28;5074426;28;20032;-83
2022/08/08 10:48:54;;;;;;;4.63;1.73;;;;;;;24.89;43.04;102520.13;5074093;28;20032;-83
2022/08/08 10:51:27;;;;;;;5.05;1.38;;;;;;;25.13;42.87;102521.66;5075831;28;20108;-83
2022/08/08 10:53:54;;;;;;;2.50;1.50;;;;;;;24.99;43.12;102513.53;5077578;28;20111;-83
2022/08/08 10:56:20;;;;;;;4.88;1.60;;;;;;;25.04;44.71;102522.44;5074522;28;20024;-83
2022/08/08 10:58:45;;;;;;;5.05;1.55;;;;;;;25.31;43.55;102522.53;5073066;28;20584;-83
2022/08/08 11:01:11;;;;;;;3.43;1.70;;;;;;;25.70;42.10;102520.88;5073306;28;20100;-83
2022/08/08 11:03:44;;;;;;;3.83;1.75;;;;;;;25.93;42.09;102517.97;5074374;28;20063;-82
2022/08/08 11:06:11;;;;;;;5.77;1.53;;;;;;;26.27;40.27;102519.13;5074135;28;20028;-83
2022/08/08 11:08:38;;;;;;;4.10;1.50;;;;;;;26.71;40.79;102508.03;5073936;28;20358;-82
2022/08/08 11:11:09;;;;;;;2.10;1.40;;;;;;;27.11;39.17;102513.25;5073322;28;20073;-83
2022/08/08 11:13:39;;;;;;;2.00;1.42;;;;;;;27.28;38.19;102512.31;5073873;28;20075;-83
2022/08/08 11:16:06;;;;;;;3.05;1.60;;;;;;;27.39;37.11;102499.00;5073720;28;20031;-84
2022/08/08 11:18:35;;;;;;;3.15;1.42;;;;;;;27.27;37.23;102510.72;5073788;28;20162;-84
2022/08/08 11:21:02;;;;;;;3.63;1.27;;;;;;;27.27;37.67;102518.16;5072731;28;20085;-84
2022/08/08 11:23:32;;;;;;;2.05;1.50;;;;;;;26.71;38.23;102508.03;5073825;28;20048;-84
2022/08/08 11:26:02;;;;;;;3.58;1.60;;;;;;;26.48;39.14;102504.72;5073767;28;20110;-84
2022/08/08 11:28:34;;;;;;;3.17;1.52;;;;;;;26.61;39.24;102495.44;5073541;28;20490;-84
2022/08/08 11:31:01;;;;;;;3.03;1.30;;;;;;;26.72;38.15;102495.91;5072420;28;20138;-83
2022/08/08 11:33:27;;;;;;;5.17;1.57;;;;;;;26.62;38.41;102491.56;5072789;28;20286;-82
2022/08/08 11:35:55;;;;;;;2.83;1.30;;;;;;;26.31;38.17;102492.59;5073612;28;20038;-83
2022/08/08 11:38:21;;;;;;;2.42;1.45;;;;;;;25.99;39.18;102494.69;5073059;28;20434;-84
2022/08/08 11:40:48;;;;;;;3.85;1.48;;;;;;;25.79;39.21;102490.69;5071487;28;20158;-83
2022/08/08 11:43:15;;;;;;;2.42;1.15;;;;;;;25.46;40.03;102488.38;5073238;28;20474;-85
2022/08/08 11:45:41;;;;;;;2.97;1.40;;;;;;;25.67;40.70;102488.56;5072901;28;20438;-83
2022/08/08 11:48:07;;;;;;;1.38;1.10;;;;;;;26.44;39.23;102477.88;5073191;28;20027;-83
2022/08/08 11:50:33;;;;;;;4.05;1.17;;;;;;;26.95;37.91;102485.47;5072566;28;20441;-83
2022/08/08 11:52:58;;;;;;;2.13;1.43;;;;;;;26.85;37.16;102485.84;5072119;28;20131;-83
2022/08/08 11:55:27;;;;;;;1.48;1.13;;;;;;;26.76;36.80;102486.66;5072881;28;20549;-82